createdAt,value
2023-01-30T00:01:16.557Z,52.80
2023-01-30T00:03:44.756Z,52.70
2023-01-30T00:06:14.630Z,52.80
2023-01-30T00:08:42.696Z,52.60
2023-01-30T00:11:12.611Z,52.60
2023-01-30T00:13:41.053Z,52.60
2023-01-30T00:16:10.630Z,52.90
2023-01-30T00:18:38.763Z,52.90
2023-01-30T00:21:08.596Z,52.70
2023-01-30T00:23:39.283Z,52.70
2023-01-30T00:26:08.461Z,53.00
2023-01-30T00:28:39.452Z,52.90
2023-01-30T00:31:07.870Z,53.10
2023-01-30T00:33:38.122Z,53.20
2023-01-30T00:36:07.011Z,53.50
2023-01-30T00:38:35.045Z,53.00
2023-01-30T00:41:04.912Z,53.10
2023-01-30T00:43:50.273Z,53.20
2023-01-30T00:46:42.424Z,52.90
2023-01-30T00:49:10.340Z,52.90
2023-01-30T00:51:38.658Z,53.30
2023-01-30T00:54:06.745Z,53.00
2023-01-30T00:56:36.430Z,53.70
2023-01-30T00:59:04.740Z,53.30
2023-01-30T01:01:32.857Z,53.40
2023-01-30T01:04:00.777Z,53.80
2023-01-30T01:06:28.899Z,53.40
2023-01-30T01:08:57.686Z,53.40
2023-01-30T01:11:25.876Z,53.40
2023-01-30T01:13:56.479Z,53.30
2023-01-30T01:16:24.999Z,53.40
2023-01-30T01:18:53.234Z,53.30
2023-01-30T01:21:21.665Z,53.40
2023-01-30T01:23:52.400Z,53.30
2023-01-30T01:26:21.005Z,53.30
2023-01-30T01:28:48.971Z,53.80
2023-01-30T01:31:18.612Z,53.50
2023-01-30T01:33:46.819Z,53.60
2023-01-30T01:36:29.346Z,53.60
2023-01-30T01:39:04.295Z,53.60
2023-01-30T01:41:31.320Z,53.50
2023-01-30T01:44:05.326Z,53.70
2023-01-30T01:46:39.426Z,53.50
2023-01-30T01:49:13.759Z,53.40
2023-01-30T01:51:48.171Z,53.40
2023-01-30T01:54:23.166Z,53.40
2023-01-30T01:56:51.947Z,53.60
2023-01-30T01:59:28.104Z,53.40
2023-01-30T02:02:02.157Z,53.50
2023-01-30T02:04:46.988Z,53.40
2023-01-30T02:07:17.711Z,53.30
2023-01-30T02:09:46.207Z,53.40
2023-01-30T02:12:16.393Z,53.30
2023-01-30T02:14:45.302Z,53.40
2023-01-30T02:17:16.252Z,53.70
2023-01-30T02:19:50.364Z,53.50
2023-01-30T02:22:34.921Z,53.60
2023-01-30T02:25:33.828Z,53.70
2023-01-30T02:28:35.687Z,53.80
2023-01-30T02:31:16.762Z,53.80
2023-01-30T02:33:54.411Z,54.10
2023-01-30T02:36:29.996Z,54.00
2023-01-30T02:39:05.989Z,53.90
2023-01-30T02:41:43.880Z,54.10
2023-01-30T02:44:18.781Z,53.90
2023-01-30T02:46:55.051Z,53.80
2023-01-30T02:49:27.554Z,54.00
2023-01-30T02:51:57.754Z,54.00
2023-01-30T02:54:25.662Z,53.90
2023-01-30T02:56:58.012Z,54.00
2023-01-30T02:59:31.387Z,54.60
2023-01-30T03:02:33.657Z,54.20
2023-01-30T03:05:23.012Z,54.40
2023-01-30T03:08:04.737Z,54.50
2023-01-30T03:10:38.799Z,54.40
2023-01-30T03:13:15.806Z,54.30
2023-01-30T03:15:51.266Z,54.20
2023-01-30T03:18:21.602Z,54.40
2023-01-30T03:20:49.729Z,54.50
2023-01-30T03:23:17.853Z,54.60
2023-01-30T03:25:48.954Z,54.40
2023-01-30T03:28:21.202Z,54.40
2023-01-30T03:30:50.339Z,54.90
2023-01-30T03:33:19.738Z,55.00
2023-01-30T03:35:50.269Z,55.30
2023-01-30T03:38:18.733Z,54.90
2023-01-30T03:40:47.969Z,54.70
2023-01-30T03:43:16.591Z,54.70
2023-01-30T03:45:44.663Z,54.80
2023-01-30T03:48:12.941Z,54.70
2023-01-30T03:50:42.527Z,54.90
2023-01-30T03:53:11.791Z,55.00
2023-01-30T03:55:40.299Z,54.70
2023-01-30T03:58:08.386Z,54.90
2023-01-30T04:00:36.687Z,54.80
2023-01-30T04:03:05.507Z,55.20
2023-01-30T04:05:33.676Z,56.00
2023-01-30T04:08:07.626Z,55.30
2023-01-30T04:10:36.304Z,55.80
2023-01-30T04:13:05.020Z,55.30
2023-01-30T04:15:33.529Z,55.00
2023-01-30T04:18:24.858Z,55.90
2023-01-30T04:20:59.172Z,55.60
2023-01-30T04:23:35.883Z,56.60
2023-01-30T04:26:05.040Z,55.80
2023-01-30T04:28:36.273Z,55.40
2023-01-30T04:31:05.434Z,55.50
2023-01-30T04:33:45.351Z,55.40
2023-01-30T04:36:14.567Z,55.20
2023-01-30T04:38:45.201Z,55.50
2023-01-30T04:41:13.717Z,55.60
2023-01-30T04:43:43.721Z,55.60
2023-01-30T04:46:30.302Z,55.60
2023-01-30T04:48:58.541Z,55.40
2023-01-30T04:51:27.289Z,55.30
2023-01-30T04:53:56.885Z,55.60
2023-01-30T04:56:24.991Z,55.80
2023-01-30T04:58:53.994Z,55.60
2023-01-30T05:01:27.510Z,55.50
2023-01-30T05:03:55.574Z,55.60
2023-01-30T05:06:24.069Z,55.50
2023-01-30T05:08:52.575Z,55.60
2023-01-30T05:11:23.257Z,55.50
2023-01-30T05:13:51.470Z,55.70
2023-01-30T05:16:21.721Z,55.60
2023-01-30T05:18:50.166Z,55.40
2023-01-30T05:21:21.443Z,55.50
2023-01-30T05:23:49.673Z,55.60
2023-01-30T05:26:17.726Z,55.70
2023-01-30T05:28:53.099Z,55.50
2023-01-30T05:31:21.994Z,55.40
2023-01-30T05:33:52.551Z,55.80
2023-01-30T05:36:23.427Z,55.70
2023-01-30T05:38:52.724Z,55.50
2023-01-30T05:41:21.610Z,55.60
2023-01-30T05:43:54.323Z,55.30
2023-01-30T05:46:23.127Z,55.50
2023-01-30T05:48:51.600Z,55.40
2023-01-30T05:51:21.855Z,55.30
2023-01-30T05:53:50.823Z,55.50
2023-01-30T05:56:20.215Z,55.90
2023-01-30T05:58:54.014Z,56.50
2023-01-30T06:01:22.846Z,56.10
2023-01-30T06:03:51.989Z,55.70
2023-01-30T06:06:21.880Z,55.60
2023-01-30T06:08:53.888Z,56.00
2023-01-30T06:11:22.573Z,55.70
2023-01-30T06:13:51.485Z,55.60
2023-01-30T06:16:22.191Z,55.80
2023-01-30T06:18:51.135Z,55.90
2023-01-30T06:21:19.841Z,56.30
2023-01-30T06:23:48.160Z,55.80
2023-01-30T06:26:16.876Z,55.90
2023-01-30T06:28:45.159Z,56.40
2023-01-30T06:31:13.624Z,56.20
2023-01-30T06:33:44.231Z,56.70
2023-01-30T06:36:15.004Z,56.20
2023-01-30T06:38:43.744Z,56.00
2023-01-30T06:41:12.387Z,56.30
2023-01-30T06:43:42.470Z,56.60
2023-01-30T06:46:10.956Z,56.20
2023-01-30T06:48:39.574Z,56.40
2023-01-30T06:51:09.534Z,56.60
2023-01-30T06:53:37.965Z,56.70
2023-01-30T06:56:06.907Z,56.50
2023-01-30T06:58:35.387Z,57.00
2023-01-30T07:01:03.692Z,56.80
2023-01-30T07:03:32.318Z,56.80
2023-01-30T07:06:00.685Z,56.50
2023-01-30T07:08:30.739Z,56.60
2023-01-30T07:10:59.074Z,56.70
2023-01-30T07:13:27.600Z,56.50
2023-01-30T07:15:55.869Z,56.70
2023-01-30T07:18:24.432Z,56.50
2023-01-30T07:20:52.726Z,57.10
2023-01-30T07:23:21.420Z,56.90
2023-01-30T07:25:51.218Z,56.90
2023-01-30T07:28:19.395Z,56.80
2023-01-30T07:30:50.160Z,56.90
2023-01-30T07:33:18.976Z,57.80
2023-01-30T07:35:47.333Z,57.50
2023-01-30T07:38:15.881Z,57.40
2023-01-30T07:40:44.349Z,57.30
2023-01-30T07:43:15.392Z,57.80
2023-01-30T07:45:45.724Z,57.60
2023-01-30T07:48:16.634Z,57.70
2023-01-30T07:50:45.576Z,58.10
2023-01-30T07:53:16.613Z,57.60
2023-01-30T07:55:45.190Z,57.80
2023-01-30T07:58:16.575Z,58.20
2023-01-30T08:00:45.235Z,58.00
2023-01-30T08:03:15.028Z,57.90
2023-01-30T08:05:44.111Z,57.90
2023-01-30T08:08:12.735Z,57.90
2023-01-30T08:10:41.041Z,58.10
2023-01-30T08:13:09.548Z,57.90
2023-01-30T08:15:39.120Z,57.70
2023-01-30T08:18:08.782Z,57.60
2023-01-30T08:20:37.887Z,57.70
2023-01-30T08:23:06.634Z,57.80
2023-01-30T08:25:35.550Z,57.80
2023-01-30T08:28:04.325Z,57.70
2023-01-30T08:30:34.408Z,57.80
2023-01-30T08:33:04.152Z,57.80
2023-01-30T08:35:32.494Z,57.90
2023-01-30T08:38:01.186Z,57.80
2023-01-30T08:40:29.745Z,57.80
2023-01-30T08:42:58.064Z,57.80
2023-01-30T08:45:26.738Z,57.70
2023-01-30T08:47:55.207Z,57.70
2023-01-30T08:50:25.074Z,57.60
2023-01-30T08:52:53.727Z,57.80
2023-01-30T08:55:22.344Z,57.70
2023-01-30T08:57:50.691Z,57.80
2023-01-30T09:00:20.610Z,57.80
2023-01-30T09:02:49.346Z,57.80
2023-01-30T09:05:17.932Z,57.80
2023-01-30T09:07:47.918Z,57.60
2023-01-30T09:10:16.859Z,57.70
2023-01-30T09:12:46.571Z,57.60
2023-01-30T09:15:15.582Z,57.60
2023-01-30T09:17:44.900Z,57.70
2023-01-30T09:20:14.100Z,57.70
2023-01-30T09:22:42.945Z,57.70
2023-01-30T09:25:16.759Z,57.60
2023-01-30T09:27:45.116Z,57.80
2023-01-30T09:30:14.563Z,57.60
2023-01-30T09:32:45.596Z,57.70
2023-01-30T09:35:14.006Z,57.80
2023-01-30T09:37:48.569Z,57.80
2023-01-30T09:40:22.194Z,57.90
2023-01-30T09:43:11.846Z,57.80
2023-01-30T09:45:46.925Z,57.80
2023-01-30T09:48:23.485Z,58.10
2023-01-30T09:51:27.057Z,57.70
2023-01-30T09:54:08.797Z,57.90
2023-01-30T09:56:38.812Z,57.80
2023-01-30T09:59:07.483Z,57.70
2023-01-30T10:01:49.673Z,57.60
2023-01-30T10:04:25.243Z,57.40
2023-01-30T10:07:06.153Z,57.30
2023-01-30T10:09:42.951Z,57.10
2023-01-30T10:12:34.861Z,57.20
2023-01-30T10:15:30.698Z,57.40
2023-01-30T10:18:32.651Z,57.30
2023-01-30T10:21:12.066Z,57.00
2023-01-30T10:24:03.417Z,56.90
2023-01-30T10:26:32.682Z,56.80
2023-01-30T10:29:08.271Z,56.60
2023-01-30T10:31:43.728Z,56.40
2023-01-30T10:34:18.257Z,56.40
2023-01-30T10:36:53.666Z,56.40
2023-01-30T10:39:33.498Z,56.30
2023-01-30T10:42:11.782Z,56.10
2023-01-30T10:44:43.396Z,56.20
2023-01-30T10:47:46.767Z,56.60
2023-01-30T10:50:18.842Z,55.90
2023-01-30T10:52:57.124Z,55.90
2023-01-30T10:55:37.639Z,56.10
2023-01-30T10:58:16.886Z,57.10
2023-01-30T11:00:53.171Z,56.90
2023-01-30T11:03:27.975Z,56.10
2023-01-30T11:06:02.566Z,55.50
2023-01-30T11:08:33.504Z,55.00
2023-01-30T11:11:02.863Z,54.80
2023-01-30T11:13:32.915Z,54.80
2023-01-30T11:16:07.487Z,54.70
2023-01-30T11:21:44.081Z,54.30
2023-01-30T11:24:17.818Z,54.70
2023-01-30T11:26:48.418Z,55.10
2023-01-30T11:29:25.101Z,55.30
2023-01-30T11:31:56.171Z,55.20
2023-01-30T11:34:26.265Z,54.90
2023-01-30T11:36:55.021Z,53.80
2023-01-30T11:39:30.471Z,53.90
2023-01-30T11:42:02.188Z,53.80
2023-01-30T11:44:33.511Z,53.50
2023-01-30T11:47:09.419Z,53.40
2023-01-30T11:49:46.379Z,53.40
2023-01-30T11:52:20.292Z,53.20
2023-01-30T11:54:49.641Z,53.40
2023-01-30T11:57:20.715Z,53.30
2023-01-30T11:59:55.578Z,53.30
2023-01-30T12:02:30.855Z,53.40
2023-01-30T12:05:03.347Z,53.20
2023-01-30T12:07:33.725Z,53.30
2023-01-30T12:10:02.117Z,53.30
2023-01-30T12:12:33.701Z,53.30
2023-01-30T12:15:16.257Z,53.10
2023-01-30T12:17:50.899Z,53.20
2023-01-30T12:20:26.696Z,52.50
2023-01-30T12:23:06.563Z,52.90
2023-01-30T12:25:42.598Z,53.00
2023-01-30T12:28:16.331Z,53.10
2023-01-30T12:30:51.080Z,53.10
2023-01-30T12:33:21.430Z,52.90
2023-01-30T12:36:04.024Z,53.10
2023-01-30T12:38:59.238Z,53.10
2023-01-30T12:41:56.921Z,53.10
2023-01-30T12:44:56.963Z,53.10
2023-01-30T12:47:45.892Z,52.90
2023-01-30T12:50:27.393Z,53.00
2023-01-30T12:53:27.873Z,53.00
2023-01-30T12:56:17.664Z,53.00
2023-01-30T12:58:52.772Z,53.30
2023-01-30T13:01:29.853Z,53.40
2023-01-30T13:04:12.477Z,53.20
2023-01-30T13:07:02.951Z,53.10
2023-01-30T13:10:00.500Z,53.00
2023-01-30T13:12:38.302Z,53.10
2023-01-30T13:15:18.409Z,53.30
2023-01-30T13:18:03.810Z,53.30
2023-01-30T13:20:53.418Z,53.30
2023-01-30T13:23:33.672Z,53.40
2023-01-30T13:26:06.728Z,54.00
2023-01-30T13:28:39.515Z,53.60
2023-01-30T13:31:13.211Z,53.50
2023-01-30T13:33:45.391Z,53.40
2023-01-30T13:36:18.064Z,53.50
2023-01-30T13:38:59.766Z,52.70
2023-01-30T13:41:32.736Z,52.70
2023-01-30T13:44:16.821Z,52.70
2023-01-30T13:46:47.606Z,52.60
2023-01-30T13:49:24.030Z,52.50
2023-01-30T13:52:00.218Z,52.30
2023-01-30T13:54:57.404Z,52.20
2023-01-30T13:57:34.852Z,51.80
2023-01-30T14:00:29.781Z,52.20
2023-01-30T14:03:24.186Z,52.10
2023-01-30T14:06:38.975Z,52.10
2023-01-30T14:09:21.201Z,52.10
2023-01-30T14:11:58.474Z,52.40
2023-01-30T14:14:32.824Z,51.90
2023-01-30T14:17:11.401Z,51.80
2023-01-30T14:19:46.976Z,51.70
2023-01-30T14:22:22.431Z,51.90
2023-01-30T14:25:34.031Z,52.10
2023-01-30T14:29:01.121Z,52.20
2023-01-30T14:31:55.466Z,52.30
2023-01-30T14:34:42.430Z,52.40
2023-01-30T14:37:44.425Z,52.40
2023-01-30T14:40:31.192Z,52.40
2023-01-30T14:43:31.157Z,52.10
2023-01-30T14:46:01.744Z,51.60
2023-01-30T14:48:36.833Z,52.00
2023-01-30T14:51:18.167Z,52.10
2023-01-30T14:53:57.455Z,52.20
2023-01-30T14:56:52.176Z,52.20
2023-01-30T14:59:25.372Z,52.10
2023-01-30T15:02:22.660Z,52.40
2023-01-30T15:04:59.824Z,52.20
2023-01-30T15:07:31.448Z,52.10
2023-01-30T15:10:03.911Z,52.10
2023-01-30T15:13:17.068Z,51.70
2023-01-30T15:15:56.813Z,51.20
2023-01-30T15:18:47.534Z,51.50
2023-01-30T15:21:37.503Z,50.70
2023-01-30T15:24:22.898Z,51.10
2023-01-30T15:27:01.964Z,51.30
2023-01-30T15:29:45.794Z,51.10
2023-01-30T15:32:19.851Z,51.30
2023-01-30T15:34:53.602Z,51.30
2023-01-30T15:37:35.391Z,51.30
2023-01-30T15:40:28.936Z,51.30
2023-01-30T15:43:14.731Z,51.10
2023-01-30T15:45:52.824Z,51.30
2023-01-30T15:48:44.940Z,51.40
2023-01-30T15:51:16.876Z,51.20
2023-01-30T15:53:49.394Z,51.40
2023-01-30T15:56:24.210Z,51.50
2023-01-30T15:58:53.423Z,51.50
2023-01-30T16:01:23.894Z,51.50
2023-01-30T16:03:53.411Z,51.50
2023-01-30T16:06:30.367Z,51.60
2023-01-30T16:09:02.522Z,51.60
2023-01-30T16:11:40.404Z,51.80
2023-01-30T16:14:14.011Z,51.70
2023-01-30T16:16:46.205Z,51.70
2023-01-30T16:19:26.615Z,51.90
2023-01-30T16:21:57.967Z,52.10
2023-01-30T16:24:30.264Z,52.20
2023-01-30T16:27:02.907Z,52.20
2023-01-30T16:29:34.253Z,52.10
2023-01-30T16:32:03.415Z,52.10
2023-01-30T16:34:35.179Z,52.10
2023-01-30T16:37:08.724Z,52.10
2023-01-30T16:39:41.484Z,51.90
2023-01-30T16:42:24.884Z,52.00
2023-01-30T16:44:54.301Z,52.00
2023-01-30T16:47:25.665Z,52.10
2023-01-30T16:49:55.819Z,51.80
2023-01-30T16:52:41.959Z,52.00
2023-01-30T16:55:22.224Z,52.00
2023-01-30T16:57:54.572Z,52.00
2023-01-30T17:00:26.998Z,52.10
2023-01-30T17:02:57.900Z,52.20
2023-01-30T17:05:27.945Z,52.20
2023-01-30T17:07:57.947Z,52.20
2023-01-30T17:10:52.636Z,52.30
2023-01-30T17:13:34.773Z,52.20
2023-01-30T17:16:24.214Z,52.30
2023-01-30T17:18:53.906Z,52.30
2023-01-30T17:21:24.367Z,52.30
2023-01-30T17:23:56.053Z,52.30
2023-01-30T17:26:26.876Z,52.30
2023-01-30T17:28:55.205Z,52.10
2023-01-30T17:31:23.813Z,52.20
2023-01-30T17:33:52.654Z,52.20
2023-01-30T17:36:24.255Z,52.20
2023-01-30T17:38:53.616Z,52.20
2023-01-30T17:41:24.124Z,52.30
2023-01-30T17:43:54.280Z,52.30
2023-01-30T17:46:25.462Z,52.30
2023-01-30T17:48:54.123Z,52.80
2023-01-30T17:51:22.567Z,52.30
2023-01-30T17:53:50.963Z,52.30
2023-01-30T17:56:23.611Z,52.30
2023-01-30T17:58:53.532Z,52.80
2023-01-30T18:01:22.050Z,52.30
2023-01-30T18:03:50.567Z,52.30
2023-01-30T18:06:19.789Z,52.30
2023-01-30T18:08:48.271Z,52.80
2023-01-30T18:11:17.669Z,52.30
2023-01-30T18:13:47.100Z,52.30
2023-01-30T18:16:22.644Z,52.20
2023-01-30T18:18:51.512Z,52.30
2023-01-30T18:21:22.108Z,52.30
2023-01-30T18:23:50.548Z,52.20
2023-01-30T18:26:19.916Z,52.30
2023-01-30T18:28:49.370Z,52.30
2023-01-30T18:31:20.399Z,52.30
2023-01-30T18:33:49.129Z,52.40
2023-01-30T18:36:18.899Z,52.30
2023-01-30T18:38:48.206Z,52.40
2023-01-30T18:41:19.104Z,52.40
2023-01-30T18:43:49.727Z,52.50
2023-01-30T18:46:19.820Z,52.60
2023-01-30T18:48:48.702Z,52.60
2023-01-30T18:51:19.159Z,52.60
2023-01-30T18:53:49.148Z,52.70
2023-01-30T18:56:19.991Z,52.60
2023-01-30T18:58:50.066Z,52.60
2023-01-30T19:01:22.102Z,52.70
2023-01-30T19:03:50.684Z,52.70
2023-01-30T19:06:19.337Z,52.70
2023-01-30T19:08:48.006Z,52.70
2023-01-30T19:11:36.909Z,52.80
2023-01-30T19:14:06.146Z,52.80
2023-01-30T19:16:38.352Z,52.80
2023-01-30T19:19:07.481Z,52.80
2023-01-30T19:21:37.381Z,52.70
2023-01-30T19:24:08.737Z,52.70
2023-01-30T19:26:37.710Z,52.70
2023-01-30T19:29:07.484Z,52.80
2023-01-30T19:31:37.599Z,52.80
2023-01-30T19:34:07.202Z,52.80
2023-01-30T19:36:37.373Z,52.80
2023-01-30T19:39:07.246Z,52.80
2023-01-30T19:41:38.022Z,52.80
2023-01-30T19:44:09.016Z,52.80
2023-01-30T19:46:39.190Z,52.80
2023-01-30T19:49:07.786Z,52.80
2023-01-30T19:51:37.265Z,52.80
2023-01-30T19:54:07.666Z,52.80
2023-01-30T19:56:39.458Z,52.80
2023-01-30T19:59:08.330Z,52.80
2023-01-30T20:01:40.300Z,52.80
2023-01-30T20:04:08.751Z,52.80
2023-01-30T20:06:39.431Z,52.80
2023-01-30T20:09:11.399Z,52.80
2023-01-30T20:11:42.073Z,52.80
2023-01-30T20:14:13.014Z,52.80
2023-01-30T20:16:43.017Z,52.80
2023-01-30T20:19:15.098Z,52.80
2023-01-30T20:21:44.041Z,52.90
2023-01-30T20:24:14.272Z,52.80
2023-01-30T20:26:45.312Z,52.80
2023-01-30T20:29:17.594Z,52.80
2023-01-30T20:31:47.385Z,52.70
2023-01-30T20:34:16.613Z,52.70
2023-01-30T20:36:45.180Z,52.70
2023-01-30T20:39:14.278Z,52.70
2023-01-30T20:41:42.541Z,52.70
2023-01-30T20:44:13.863Z,52.70
2023-01-30T20:46:44.987Z,52.70
2023-01-30T20:49:17.242Z,52.70
2023-01-30T20:51:46.184Z,52.70
2023-01-30T20:54:15.889Z,52.70
2023-01-30T20:56:46.653Z,52.50
2023-01-30T20:59:18.261Z,52.50
2023-01-30T21:01:47.839Z,52.50
2023-01-30T21:04:18.930Z,52.40
2023-01-30T21:06:47.916Z,52.30
2023-01-30T21:09:19.605Z,52.20
2023-01-30T21:11:48.996Z,52.20
2023-01-30T21:14:18.936Z,52.30
2023-01-30T21:16:49.217Z,52.40
2023-01-30T21:19:19.975Z,52.40
2023-01-30T21:21:53.634Z,52.40
2023-01-30T21:24:25.750Z,52.50
2023-01-30T21:26:54.992Z,52.50
2023-01-30T21:29:25.883Z,52.60
2023-01-30T21:31:55.823Z,52.60
2023-01-30T21:34:26.469Z,52.60
2023-01-30T21:37:12.467Z,52.60
2023-01-30T21:39:58.996Z,52.70
2023-01-30T21:42:44.939Z,52.70
2023-01-30T21:45:13.560Z,52.70
2023-01-30T21:47:43.140Z,52.70
2023-01-30T21:50:13.795Z,52.60
2023-01-30T21:52:42.539Z,52.70
2023-01-30T21:55:11.360Z,52.80
2023-01-30T21:57:41.884Z,52.70
2023-01-30T22:00:11.313Z,52.80
2023-01-30T22:02:39.955Z,52.80
2023-01-30T22:05:09.405Z,52.80
2023-01-30T22:07:40.124Z,52.90
2023-01-30T22:10:08.683Z,52.80
2023-01-30T22:12:40.067Z,52.80
2023-01-30T22:15:09.316Z,52.70
2023-01-30T22:17:37.546Z,52.70
2023-01-30T22:20:06.054Z,52.70
2023-01-30T22:22:34.062Z,52.70
2023-01-30T22:25:03.330Z,52.70
2023-01-30T22:27:31.365Z,52.70
2023-01-30T22:29:59.262Z,52.70
2023-01-30T22:32:27.371Z,52.70
2023-01-30T22:34:55.250Z,52.80
2023-01-30T22:37:23.421Z,52.80
2023-01-30T22:39:51.292Z,52.70
2023-01-30T22:42:20.708Z,52.70
2023-01-30T22:44:48.573Z,52.70
2023-01-30T22:47:16.805Z,53.20
2023-01-30T22:49:44.819Z,52.80
2023-01-30T22:52:12.840Z,52.80
2023-01-30T22:54:40.737Z,52.80
2023-01-30T22:57:08.763Z,52.90
2023-01-30T22:59:38.192Z,52.90
2023-01-30T23:02:10.356Z,52.90
2023-01-30T23:04:38.292Z,52.90
2023-01-30T23:07:06.422Z,52.90
2023-01-30T23:09:34.523Z,53.00
2023-01-30T23:12:20.012Z,52.90
2023-01-30T23:14:49.534Z,52.90
2023-01-30T23:17:34.847Z,52.90
2023-01-30T23:20:03.054Z,53.00
2023-01-30T23:22:30.977Z,53.00
2023-01-30T23:24:59.241Z,53.00
2023-01-30T23:27:27.250Z,53.00
2023-01-30T23:29:56.617Z,53.10
2023-01-30T23:32:24.620Z,53.10
2023-01-30T23:34:52.649Z,53.10
2023-01-30T23:37:41.638Z,53.20
2023-01-30T23:40:11.294Z,53.20
2023-01-30T23:42:39.137Z,53.30
2023-01-30T23:45:10.018Z,53.30
2023-01-30T23:47:37.952Z,53.40
2023-01-30T23:50:06.676Z,53.40
2023-01-30T23:52:35.160Z,53.40
2023-01-30T23:55:03.348Z,53.50
2023-01-30T23:57:31.351Z,53.50
2023-01-30T23:59:59.458Z,53.60
